Time;durP1;ratioP1;P1;durP2;ratioP2;P2;SDS_P1;SDS_P2;PMS_P1;PMS_P2;Temp;Humidity;BMP_temperature;BMP_pressure;BME280_temperature;BME280_humidity;BME280_pressure;Samples;Min_cycle;Max_cycle;Signal;HPM_P1;HPM_P2
2021/08/08 00:00:48;;;;;;;5.35;1.80;;;16.60;99.90;;;;;;4938364;29;20038;-71
2021/08/08 00:03:13;;;;;;;5.75;1.80;;;16.60;99.90;;;;;;4955205;29;20043;-71
2021/08/08 00:05:39;;;;;;;5.78;2.47;;;16.60;99.90;;;;;;4955008;29;20024;-70
2021/08/08 00:08:05;;;;;;;5.68;2.38;;;16.60;99.90;;;;;;4938287;29;20031;-70
2021/08/08 00:10:30;;;;;;;3.72;2.40;;;16.60;99.90;;;;;;4955595;29;20141;-71
2021/08/08 00:12:56;;;;;;;4.07;1.80;;;16.60;99.90;;;;;;4954942;29;20093;-71
2021/08/08 00:15:21;;;;;;;4.38;2.35;;;16.60;99.90;;;;;;4955124;29;20019;-71
2021/08/08 00:17:47;;;;;;;3.80;2.30;;;16.60;99.90;;;;;;4955138;29;20528;-71
2021/08/08 00:20:13;;;;;;;5.88;2.55;;;16.60;99.90;;;;;;4954513;29;20102;-71
2021/08/08 00:22:40;;;;;;;4.47;2.78;;;16.50;99.90;;;;;;4955415;29;20020;-71
2021/08/08 00:25:09;;;;;;;2.20;1.95;;;16.60;99.90;;;;;;4954866;28;20401;-71
2021/08/08 00:27:36;;;;;;;4.70;2.90;;;16.60;99.90;;;;;;4954558;29;20400;-73
2021/08/08 00:30:03;;;;;;;6.95;3.05;;;16.60;99.90;;;;;;4955365;29;20450;-77
2021/08/08 00:32:29;;;;;;;3.90;2.30;;;16.60;99.90;;;;;;4937072;29;20035;-72
2021/08/08 00:34:54;;;;;;;7.40;3.72;;;16.60;99.90;;;;;;4955300;29;20102;-71
2021/08/08 00:37:20;;;;;;;7.15;3.20;;;16.60;99.90;;;;;;4937606;29;20102;-74
2021/08/08 00:39:45;;;;;;;5.70;2.80;;;16.60;99.90;;;;;;4954257;29;20486;-70
2021/08/08 00:42:11;;;;;;;5.60;3.30;;;16.50;99.90;;;;;;4953902;29;20464;-71
2021/08/08 00:44:37;;;;;;;6.45;2.95;;;16.60;99.90;;;;;;4954659;29;20046;-80
2021/08/08 00:47:02;;;;;;;7.22;2.90;;;16.50;99.90;;;;;;4902979;29;20067;-70
2021/08/08 00:49:28;;;;;;;5.22;3.03;;;16.50;99.90;;;;;;4935586;29;20079;-73
2021/08/08 00:51:53;;;;;;;4.78;3.13;;;16.50;99.90;;;;;;4935722;29;20039;-70
2021/08/08 00:54:19;;;;;;;7.15;3.70;;;16.50;99.90;;;;;;4938455;29;20051;-70
2021/08/08 00:56:44;;;;;;;7.20;3.53;;;16.50;99.90;;;;;;4937748;29;20467;-70
2021/08/08 00:59:10;;;;;;;7.30;3.67;;;16.50;99.90;;;;;;4955083;29;20531;-70
2021/08/08 01:01:41;;;;;;;8.82;3.53;;;16.40;99.90;;;;;;4953702;29;20035;-70
2021/08/08 01:04:09;;;;;;;12.90;4.03;;;16.40;99.90;;;;;;4954853;29;20388;-70
2021/08/08 01:06:40;;;;;;;6.93;3.85;;;16.40;99.90;;;;;;4937331;29;20707;-71
2021/08/08 01:09:09;;;;;;;8.13;4.05;;;16.30;99.90;;;;;;4954090;29;20027;-71
2021/08/08 01:11:36;;;;;;;9.73;4.15;;;16.30;99.90;;;;;;4954349;29;20035;-70
2021/08/08 01:14:02;;;;;;;8.95;3.90;;;16.30;99.90;;;;;;4954553;29;20027;-70
2021/08/08 01:16:29;;;;;;;7.35;3.85;;;16.30;99.90;;;;;;4953826;29;20046;-71
2021/08/08 01:18:56;;;;;;;8.10;4.68;;;16.30;99.90;;;;;;4954761;29;20465;-71
2021/08/08 01:21:23;;;;;;;6.78;4.45;;;16.20;99.90;;;;;;4937216;29;20027;-71
2021/08/08 01:23:57;;;;;;;7.80;4.38;;;16.20;99.90;;;;;;4953702;29;20058;-71
2021/08/08 01:26:25;;;;;;;9.90;4.45;;;16.20;99.90;;;;;;4954289;29;20066;-71
2021/08/08 01:28:53;;;;;;;7.35;4.80;;;16.20;99.90;;;;;;4936600;29;20166;-70
2021/08/08 01:31:20;;;;;;;6.50;4.53;;;16.20;99.90;;;;;;4954135;29;20063;-72
2021/08/08 01:33:46;;;;;;;8.10;5.07;;;16.20;99.90;;;;;;4937574;29;20032;-70
2021/08/08 01:36:12;;;;;;;15.80;5.60;;;16.20;99.90;;;;;;4954842;28;20039;-69
2021/08/08 01:38:57;;;;;;;8.00;5.78;;;16.20;99.90;;;;;;4958213;29;20042;-71
2021/08/08 01:41:26;;;;;;;11.38;5.25;;;16.20;99.90;;;;;;4957825;29;20038;-70
2021/08/08 01:43:53;;;;;;;9.30;4.93;;;16.20;99.90;;;;;;4957838;29;20106;-70
2021/08/08 01:46:23;;;;;;;9.68;5.22;;;16.10;99.90;;;;;;4940653;29;20027;-70
2021/08/08 01:48:53;;;;;;;11.63;5.97;;;16.10;99.90;;;;;;4958226;29;20097;-70
2021/08/08 01:51:19;;;;;;;10.82;5.70;;;16.10;99.90;;;;;;4956449;29;20043;-70
2021/08/08 01:53:45;;;;;;;12.10;5.20;;;16.10;99.90;;;;;;4958020;29;20027;-70
2021/08/08 01:56:14;;;;;;;12.88;5.75;;;16.10;99.90;;;;;;4957872;29;20102;-70
2021/08/08 01:58:40;;;;;;;12.82;5.72;;;16.10;99.90;;;;;;4957325;29;20027;-70
2021/08/08 02:01:06;;;;;;;11.60;5.90;;;16.10;99.90;;;;;;4957790;29;20107;-70
2021/08/08 02:03:33;;;;;;;15.75;6.60;;;16.10;99.90;;;;;;4957425;29;20130;-70
2021/08/08 02:05:59;;;;;;;12.57;5.80;;;16.00;99.90;;;;;;4956577;29;20027;-70
2021/08/08 02:08:24;;;;;;;11.52;6.22;;;16.10;99.90;;;;;;4957351;29;20078;-70
2021/08/08 02:10:50;;;;;;;12.85;5.93;;;16.00;99.90;;;;;;4957104;29;20094;-70
2021/08/08 02:13:16;;;;;;;13.90;6.75;;;16.00;99.90;;;;;;4957042;29;20043;-70
2021/08/08 02:15:41;;;;;;;14.23;6.32;;;16.00;99.90;;;;;;4957883;29;20054;-72
2021/08/08 02:18:07;;;;;;;7.85;5.60;;;16.00;99.90;;;;;;4956733;29;20047;-72
2021/08/08 02:20:32;;;;;;;16.80;8.70;;;16.00;99.90;;;;;;4957207;29;20023;-72
2021/08/08 02:22:58;;;;;;;11.90;6.82;;;16.00;99.90;;;;;;4957700;29;20038;-70
2021/08/08 02:25:23;;;;;;;16.67;7.03;;;16.00;99.90;;;;;;4956168;29;20039;-71
2021/08/08 02:27:49;;;;;;;19.98;7.15;;;16.00;99.90;;;;;;4940505;29;20035;-70
2021/08/08 02:30:15;;;;;;;13.15;6.80;;;15.90;99.90;;;;;;4957073;29;20051;-71
2021/08/08 02:32:40;;;;;;;14.93;6.75;;;15.90;99.90;;;;;;4939533;29;20035;-74
2021/08/08 02:35:06;;;;;;;13.82;6.63;;;15.90;99.90;;;;;;4957366;29;20023;-71
2021/08/08 02:37:32;;;;;;;20.55;7.00;;;15.90;99.90;;;;;;4939461;29;20030;-71
2021/08/08 02:39:57;;;;;;;14.07;6.68;;;15.90;99.90;;;;;;4956470;29;20052;-71
2021/08/08 02:42:23;;;;;;;19.15;7.10;;;15.90;99.90;;;;;;4957027;29;20106;-71
2021/08/08 02:44:48;;;;;;;13.07;6.90;;;15.90;99.90;;;;;;4939603;29;20030;-70
2021/08/08 02:47:14;;;;;;;12.30;6.90;;;15.90;99.90;;;;;;4955961;28;20035;-71
2021/08/08 02:49:39;;;;;;;14.30;7.00;;;15.90;99.90;;;;;;4956980;29;20023;-72
2021/08/08 02:52:06;;;;;;;16.58;6.18;;;15.90;99.90;;;;;;4956929;29;20035;-71
2021/08/08 02:54:32;;;;;;;10.20;5.63;;;15.90;99.90;;;;;;4956112;29;20428;-71
2021/08/08 02:56:57;;;;;;;22.67;6.82;;;15.90;99.90;;;;;;4957090;29;20035;-72
2021/08/08 02:59:23;;;;;;;10.38;5.80;;;15.90;99.90;;;;;;4956373;29;20028;-72
2021/08/08 03:01:48;;;;;;;16.38;6.22;;;15.90;99.90;;;;;;4956155;29;20511;-73
2021/08/08 03:04:14;;;;;;;20.63;6.85;;;15.90;99.90;;;;;;4928828;29;20112;-71
2021/08/08 03:06:46;;;;;;;14.95;6.20;;;15.90;99.90;;;;;;4954431;28;20384;-71
2021/08/08 03:09:12;;;;;;;15.25;6.20;;;15.90;99.90;;;;;;4958088;28;20026;-70
2021/08/08 03:11:45;;;;;;;16.38;6.28;;;15.90;99.90;;;;;;4959585;28;20047;-70
2021/08/08 03:14:12;;;;;;;14.40;6.45;;;16.00;99.90;;;;;;4962257;28;20027;-71
2021/08/08 03:16:37;;;;;;;12.85;5.55;;;15.90;99.90;;;;;;4937380;28;20480;-72
2021/08/08 03:19:03;;;;;;;19.60;5.78;;;15.90;99.90;;;;;;4975922;28;20038;-71
2021/08/08 03:21:28;;;;;;;13.20;5.50;;;15.90;99.90;;;;;;4958959;28;20034;-74
2021/08/08 03:23:54;;;;;;;17.83;5.38;;;15.90;99.90;;;;;;4955836;29;20031;-73
2021/08/08 03:26:19;;;;;;;12.52;5.75;;;16.00;99.90;;;;;;4956067;29;20025;-73
2021/08/08 03:28:45;;;;;;;14.65;6.18;;;16.00;99.90;;;;;;4955711;29;20428;-72
2021/08/08 03:31:10;;;;;;;15.15;5.65;;;16.00;99.90;;;;;;4955714;29;20031;-71
2021/08/08 03:33:36;;;;;;;22.90;5.53;;;16.00;99.90;;;;;;4956114;29;20106;-71
2021/08/08 03:36:02;;;;;;;17.48;5.45;;;16.00;99.90;;;;;;4955622;29;20027;-71
2021/08/08 03:38:27;;;;;;;14.07;5.65;;;16.00;99.90;;;;;;4955725;29;20082;-71
2021/08/08 03:40:53;;;;;;;15.93;5.50;;;16.10;99.90;;;;;;4956020;29;20023;-72
2021/08/08 03:43:20;;;;;;;19.52;5.38;;;16.10;99.90;;;;;;4955280;29;20024;-71
2021/08/08 03:45:45;;;;;;;15.30;5.15;;;16.00;99.90;;;;;;4956159;29;20110;-71
2021/08/08 03:48:11;;;;;;;15.90;5.25;;;16.10;99.90;;;;;;4955852;29;20102;-71
2021/08/08 03:50:39;;;;;;;17.80;5.03;;;16.00;99.90;;;;;;4955197;29;20082;-71
2021/08/08 03:53:05;;;;;;;14.13;5.28;;;16.10;99.90;;;;;;4955686;29;20041;-71
2021/08/08 03:55:30;;;;;;;14.02;5.50;;;16.10;99.90;;;;;;4955511;29;20102;-70
2021/08/08 03:57:57;;;;;;;15.05;5.65;;;16.10;99.90;;;;;;4955051;28;20082;-70
2021/08/08 04:00:23;;;;;;;12.10;4.70;;;16.10;99.90;;;;;;4955041;29;20103;-70
2021/08/08 04:02:49;;;;;;;18.48;6.00;;;16.10;99.90;;;;;;4955490;29;20073;-69
2021/08/08 04:05:14;;;;;;;13.85;4.95;;;16.10;99.90;;;;;;4937599;29;20369;-70
2021/08/08 04:07:40;;;;;;;16.17;4.97;;;16.00;99.90;;;;;;4955572;29;20035;-70
2021/08/08 04:10:06;;;;;;;12.07;4.63;;;16.00;99.90;;;;;;4955496;29;20019;-70
2021/08/08 04:12:32;;;;;;;15.93;5.20;;;16.00;99.90;;;;;;4937442;29;20094;-70
2021/08/08 04:14:59;;;;;;;16.67;5.20;;;16.00;99.90;;;;;;4955557;29;20027;-70
2021/08/08 04:17:25;;;;;;;14.70;4.60;;;16.00;99.90;;;;;;4954455;29;20031;-71
2021/08/08 04:19:50;;;;;;;17.20;4.20;;;16.00;99.90;;;;;;4955371;29;20031;-70
2021/08/08 04:22:16;;;;;;;16.20;4.65;;;16.00;99.90;;;;;;4955009;29;20031;-72
2021/08/08 04:24:41;;;;;;;15.20;4.50;;;16.00;99.90;;;;;;4954720;29;20093;-71
2021/08/08 04:27:07;;;;;;;19.83;5.00;;;16.00;99.90;;;;;;4955371;29;20023;-71
2021/08/08 04:29:32;;;;;;;13.68;5.00;;;16.00;99.90;;;;;;4937583;29;20023;-71
2021/08/08 04:31:59;;;;;;;17.38;5.18;;;16.00;99.90;;;;;;4954540;29;20047;-73
2021/08/08 04:34:25;;;;;;;17.83;4.78;;;16.00;99.90;;;;;;4937706;29;20019;-70
2021/08/08 04:36:50;;;;;;;13.55;4.80;;;16.00;99.90;;;;;;4955170;29;20499;-69
2021/08/08 04:39:16;;;;;;;14.48;4.60;;;16.00;99.90;;;;;;4954073;29;20055;-71
2021/08/08 04:41:41;;;;;;;14.85;4.53;;;16.00;99.90;;;;;;4937621;29;20034;-70
2021/08/08 04:44:07;;;;;;;11.10;4.47;;;16.00;99.90;;;;;;4955174;29;20066;-70
2021/08/08 04:46:32;;;;;;;11.23;5.10;;;16.00;99.90;;;;;;4954288;29;20038;-70
2021/08/08 04:48:58;;;;;;;13.70;4.80;;;16.00;99.90;;;;;;4954964;29;20033;-73
2021/08/08 04:51:23;;;;;;;24.13;6.05;;;16.00;99.90;;;;;;4937263;29;20102;-70
2021/08/08 04:53:49;;;;;;;13.77;4.93;;;16.00;99.90;;;;;;4937105;29;20027;-70
2021/08/08 04:56:14;;;;;;;15.23;4.82;;;16.10;99.90;;;;;;4937393;29;20027;-70
2021/08/08 04:58:40;;;;;;;14.82;4.97;;;16.10;99.90;;;;;;4954860;29;20027;-71
2021/08/08 05:01:05;;;;;;;15.15;5.55;;;16.10;99.90;;;;;;4954088;29;20023;-72
2021/08/08 05:03:31;;;;;;;16.13;5.18;;;16.10;99.90;;;;;;4954377;29;20051;-70
2021/08/08 05:05:56;;;;;;;17.05;5.05;;;16.10;99.90;;;;;;4954902;29;20027;-71
2021/08/08 05:08:22;;;;;;;13.60;4.78;;;16.20;99.90;;;;;;4953505;28;20035;-70
2021/08/08 05:10:47;;;;;;;13.10;4.72;;;16.20;99.90;;;;;;4943876;28;20019;-70
2021/08/08 05:13:13;;;;;;;18.52;5.03;;;16.20;99.90;;;;;;4951944;29;20473;-70
2021/08/08 05:15:38;;;;;;;17.77;5.53;;;16.30;99.90;;;;;;4940806;29;20032;-70
2021/08/08 05:18:04;;;;;;;15.05;4.93;;;16.40;99.90;;;;;;4961944;28;20034;-71
2021/08/08 05:20:29;;;;;;;14.45;4.78;;;16.40;99.90;;;;;;4958233;28;20464;-70
2021/08/08 05:22:55;;;;;;;19.27;4.13;;;16.40;99.90;;;;;;4936809;29;20114;-70
2021/08/08 05:25:20;;;;;;;16.95;5.30;;;16.50;99.90;;;;;;4954312;29;20024;-71
2021/08/08 05:27:46;;;;;;;22.85;4.95;;;16.50;99.90;;;;;;4953653;29;20037;-70
2021/08/08 05:30:12;;;;;;;15.38;4.45;;;16.50;99.90;;;;;;4953755;29;20031;-70
2021/08/08 05:32:38;;;;;;;15.43;4.45;;;16.50;99.90;;;;;;4953690;29;20449;-69
2021/08/08 05:35:04;;;;;;;11.45;4.07;;;16.50;99.90;;;;;;4950012;29;20476;-69
2021/08/08 05:37:30;;;;;;;14.02;4.43;;;16.50;99.90;;;;;;4953684;29;20027;-69
2021/08/08 05:39:58;;;;;;;15.85;4.60;;;16.50;99.90;;;;;;4953205;29;20019;-73
2021/08/08 05:42:23;;;;;;;12.15;4.88;;;16.50;99.90;;;;;;4952780;29;20436;-70
2021/08/08 05:44:49;;;;;;;18.48;4.00;;;16.50;99.90;;;;;;4946432;29;20024;-70
2021/08/08 05:47:14;;;;;;;12.07;4.63;;;16.50;99.90;;;;;;4952839;29;20036;-71
2021/08/08 05:49:40;;;;;;;14.13;4.43;;;16.60;99.90;;;;;;4952286;29;20476;-70
2021/08/08 05:52:06;;;;;;;16.15;5.45;;;16.60;99.90;;;;;;4953015;29;20066;-72
2021/08/08 05:54:32;;;;;;;17.65;4.45;;;16.60;99.90;;;;;;4953253;29;20026;-69
2021/08/08 05:56:57;;;;;;;13.50;4.30;;;16.70;99.90;;;;;;4937187;29;20111;-70
2021/08/08 05:59:24;;;;;;;10.93;3.40;;;16.70;99.90;;;;;;4950607;29;20030;-69
2021/08/08 06:01:49;;;;;;;11.27;4.50;;;16.80;99.90;;;;;;4965106;28;20483;-69
2021/08/08 06:04:15;;;;;;;10.32;3.92;;;16.80;99.90;;;;;;4936155;29;20097;-69
2021/08/08 06:06:40;;;;;;;16.20;4.57;;;16.80;99.90;;;;;;4954166;29;20027;-69
2021/08/08 06:09:06;;;;;;;16.48;5.07;;;16.80;99.90;;;;;;4954111;29;20027;-69
2021/08/08 06:11:32;;;;;;;14.82;4.55;;;16.80;99.90;;;;;;4957178;28;20510;-69
2021/08/08 06:13:57;;;;;;;17.02;5.00;;;16.90;99.90;;;;;;4973629;28;20027;-70
2021/08/08 06:16:23;;;;;;;14.77;4.95;;;16.90;99.90;;;;;;4962314;28;20379;-69
2021/08/08 06:18:48;;;;;;;15.65;4.45;;;16.80;99.90;;;;;;4953609;29;20484;-72
2021/08/08 06:21:14;;;;;;;11.70;3.97;;;16.90;99.90;;;;;;4953791;28;20024;-70
2021/08/08 06:23:40;;;;;;;17.95;5.95;;;17.00;99.90;;;;;;4961313;28;20038;-75
2021/08/08 06:26:05;;;;;;;14.38;4.13;;;17.20;99.90;;;;;;4976140;28;20109;-70
2021/08/08 06:28:31;;;;;;;15.27;4.50;;;17.40;99.90;;;;;;4961540;28;20039;-72
2021/08/08 06:30:57;;;;;;;10.68;4.03;;;17.70;99.90;;;;;;4962801;28;20037;-71
2021/08/08 06:33:22;;;;;;;16.38;4.45;;;17.70;99.90;;;;;;4963492;28;20070;-70
2021/08/08 06:35:48;;;;;;;18.52;4.20;;;17.80;99.90;;;;;;4959957;28;20019;-70
2021/08/08 06:38:14;;;;;;;11.35;3.85;;;17.90;99.90;;;;;;4956359;29;20027;-71
2021/08/08 06:40:40;;;;;;;15.35;4.32;;;17.80;99.90;;;;;;4956947;29;20047;-82
2021/08/08 06:43:05;;;;;;;16.25;4.38;;;17.80;99.90;;;;;;4957552;29;20055;-70
2021/08/08 06:45:32;;;;;;;14.75;4.35;;;17.70;99.90;;;;;;4956235;29;20067;-70
2021/08/08 06:48:00;;;;;;;14.98;3.83;;;17.70;99.90;;;;;;4957153;29;20025;-70
2021/08/08 06:50:29;;;;;;;10.82;4.68;;;17.60;99.90;;;;;;4965699;28;20085;-74
2021/08/08 06:52:56;;;;;;;11.73;4.75;;;17.50;99.90;;;;;;4968662;28;20090;-70
2021/08/08 06:55:22;;;;;;;14.82;4.47;;;17.50;99.90;;;;;;4975881;28;20046;-70
2021/08/08 06:57:48;;;;;;;13.20;4.13;;;17.50;99.90;;;;;;4966507;28;20069;-77
2021/08/08 07:00:14;;;;;;;11.70;4.07;;;17.60;99.90;;;;;;4955512;29;20028;-73
2021/08/08 07:02:39;;;;;;;16.25;4.35;;;17.60;99.90;;;;;;4956325;29;20055;-71
2021/08/08 07:05:06;;;;;;;13.65;4.32;;;17.60;99.90;;;;;;4956637;28;20050;-72
2021/08/08 07:07:32;;;;;;;13.82;3.92;;;17.70;99.90;;;;;;4958853;28;20113;-78
2021/08/08 07:09:58;;;;;;;19.77;5.25;;;17.90;99.90;;;;;;4954072;29;20480;-76
2021/08/08 07:12:24;;;;;;;11.68;3.50;;;18.10;99.90;;;;;;4955332;28;20031;-72
2021/08/08 07:14:49;;;;;;;15.13;5.03;;;18.20;99.90;;;;;;4955265;28;20424;-73
2021/08/08 07:17:15;;;;;;;19.15;4.63;;;18.20;99.90;;;;;;4975495;28;20130;-71
2021/08/08 07:19:41;;;;;;;12.63;3.92;;;18.10;99.90;;;;;;4968960;28;20150;-70
2021/08/08 07:22:08;;;;;;;17.73;4.45;;;18.20;99.90;;;;;;4955835;29;20434;-78
2021/08/08 07:24:34;;;;;;;11.27;3.88;;;18.30;99.90;;;;;;4955977;29;20023;-70
2021/08/08 07:26:59;;;;;;;17.98;5.57;;;18.30;99.90;;;;;;4956332;29;20026;-70
2021/08/08 07:29:25;;;;;;;16.80;4.80;;;18.40;99.90;;;;;;4937626;28;20089;-75
2021/08/08 07:31:51;;;;;;;15.50;3.92;;;18.50;99.90;;;;;;4956211;28;20035;-71
2021/08/08 07:34:17;;;;;;;14.82;4.93;;;18.70;99.90;;;;;;4954164;28;20034;-75
2021/08/08 07:36:43;;;;;;;13.32;4.07;;;18.80;99.90;;;;;;4955955;29;20035;-70
2021/08/08 07:39:08;;;;;;;16.90;4.28;;;18.90;99.90;;;;;;4956125;29;20216;-71
2021/08/08 07:41:34;;;;;;;11.23;3.75;;;19.00;99.90;;;;;;4954768;29;20046;-71
2021/08/08 07:43:59;;;;;;;10.30;3.40;;;19.00;99.90;;;;;;4955564;29;20467;-71
2021/08/08 07:46:25;;;;;;;13.18;4.25;;;19.20;99.90;;;;;;4955640;29;20050;-70
2021/08/08 07:48:50;;;;;;;11.40;3.85;;;19.20;99.90;;;;;;4955222;29;20384;-71
2021/08/08 07:51:17;;;;;;;10.90;3.42;;;19.20;99.90;;;;;;4955458;29;20483;-70
2021/08/08 07:53:42;;;;;;;12.52;3.70;;;19.30;99.90;;;;;;4938636;29;20035;-71
2021/08/08 07:56:08;;;;;;;13.68;3.80;;;19.40;99.90;;;;;;4955474;29;20031;-70
2021/08/08 07:58:34;;;;;;;13.38;4.18;;;19.40;99.90;;;;;;4954769;29;20102;-70
2021/08/08 08:01:00;;;;;;;11.60;3.67;;;19.60;99.90;;;;;;4955620;29;20155;-70
2021/08/08 08:03:26;;;;;;;14.05;3.70;;;19.60;99.90;;;;;;4954113;29;20093;-70
2021/08/08 08:05:51;;;;;;;14.30;3.50;;;19.70;99.90;;;;;;4955235;29;20387;-70
2021/08/08 08:08:17;;;;;;;10.80;3.53;;;19.60;99.90;;;;;;4955457;29;20023;-70
2021/08/08 08:10:43;;;;;;;8.82;3.67;;;19.50;99.90;;;;;;4954972;29;20031;-70
2021/08/08 08:13:08;;;;;;;14.70;4.22;;;19.30;99.90;;;;;;4954756;29;20047;-70
2021/08/08 08:15:34;;;;;;;10.43;3.35;;;19.20;99.90;;;;;;4954645;29;20059;-70
2021/08/08 08:18:00;;;;;;;11.45;3.63;;;19.10;99.90;;;;;;4954759;29;20114;-70
2021/08/08 08:20:26;;;;;;;9.55;3.70;;;19.00;99.90;;;;;;4955034;29;20063;-70
2021/08/08 08:22:52;;;;;;;11.52;3.92;;;19.10;99.90;;;;;;4955110;29;20110;-70
2021/08/08 08:25:18;;;;;;;11.20;3.20;;;19.30;99.90;;;;;;4954331;29;20107;-70
2021/08/08 08:27:43;;;;;;;13.32;3.28;;;19.40;99.90;;;;;;4955252;29;20027;-72
2021/08/08 08:30:10;;;;;;;14.68;3.13;;;19.30;99.90;;;;;;4954962;29;20087;-71
2021/08/08 08:32:36;;;;;;;11.73;3.58;;;19.30;99.90;;;;;;4954599;29;20439;-72
2021/08/08 08:35:03;;;;;;;15.13;3.10;;;19.20;99.90;;;;;;4938006;29;20023;-71
2021/08/08 08:37:33;;;;;;;11.15;3.97;;;19.10;99.90;;;;;;4937676;29;20027;-70
2021/08/08 08:40:00;;;;;;;8.73;3.40;;;19.20;99.90;;;;;;4937576;29;20027;-69
2021/08/08 08:42:30;;;;;;;7.78;2.88;;;19.20;99.90;;;;;;4937418;29;20027;-70
2021/08/08 08:44:56;;;;;;;14.68;3.60;;;19.20;99.90;;;;;;4953877;28;20031;-72
2021/08/08 08:47:23;;;;;;;11.75;3.25;;;19.30;99.90;;;;;;4954701;29;20035;-70
2021/08/08 08:49:56;;;;;;;10.05;3.45;;;19.40;99.90;;;;;;4954863;29;20027;-70
2021/08/08 08:52:24;;;;;;;12.35;3.60;;;19.60;99.90;;;;;;4953845;29;20353;-70
2021/08/08 08:54:49;;;;;;;8.50;3.45;;;19.70;99.90;;;;;;4954642;29;20027;-73
2021/08/08 08:57:15;;;;;;;9.23;2.92;;;19.90;99.90;;;;;;4953441;29;20035;-71
2021/08/08 08:59:44;;;;;;;9.02;3.47;;;20.10;99.90;;;;;;4953443;28;20373;-70
2021/08/08 09:02:11;;;;;;;11.25;3.72;;;20.30;99.90;;;;;;4953954;29;20109;-70
2021/08/08 09:04:36;;;;;;;11.23;3.80;;;20.30;99.90;;;;;;4937429;29;20035;-70
2021/08/08 09:07:03;;;;;;;9.45;3.10;;;20.30;99.90;;;;;;4937034;29;20098;-70
2021/08/08 09:09:30;;;;;;;9.85;3.53;;;20.20;99.90;;;;;;4954016;29;20035;-70
2021/08/08 09:11:55;;;;;;;9.38;2.92;;;20.30;99.90;;;;;;4954649;29;20027;-70
2021/08/08 09:14:22;;;;;;;10.80;3.28;;;20.30;99.90;;;;;;4953747;29;20020;-71
2021/08/08 09:16:53;;;;;;;9.77;3.30;;;20.40;99.90;;;;;;4954151;29;20031;-74
2021/08/08 09:19:20;;;;;;;9.30;3.03;;;20.60;99.90;;;;;;4953487;29;20035;-71
2021/08/08 09:21:46;;;;;;;16.90;3.42;;;20.80;99.90;;;;;;4952871;29;20472;-72
2021/08/08 09:24:29;;;;;;;9.25;3.13;;;21.00;99.90;;;;;;4957092;28;20027;-70
2021/08/08 09:27:09;;;;;;;9.30;3.22;;;21.20;99.90;;;;;;4961209;28;20058;-70
2021/08/08 09:29:39;;;;;;;11.88;3.03;;;21.20;99.90;;;;;;4954203;29;20376;-71
2021/08/08 09:32:05;;;;;;;9.38;3.38;;;21.20;99.90;;;;;;4954560;29;20044;-70
2021/08/08 09:34:34;;;;;;;12.98;3.35;;;21.20;99.90;;;;;;4952266;29;20027;-72
2021/08/08 09:37:05;;;;;;;7.05;2.90;;;21.10;99.90;;;;;;4954441;28;20027;-73
2021/08/08 09:39:42;;;;;;;12.75;3.78;;;21.10;99.90;;;;;;4936780;29;20046;-71
2021/08/08 09:42:16;;;;;;;8.25;3.10;;;21.00;99.90;;;;;;4954006;29;20055;-70
2021/08/08 09:45:03;;;;;;;7.82;3.40;;;20.90;99.90;;;;;;4954449;29;20423;-71
2021/08/08 09:47:50;;;;;;;10.93;3.22;;;20.90;99.90;;;;;;4936937;29;20514;-71
2021/08/08 09:50:16;;;;;;;10.02;3.20;;;21.00;99.90;;;;;;4953357;29;20058;-70
2021/08/08 09:52:52;;;;;;;10.60;3.05;;;21.00;99.90;;;;;;4954278;29;20512;-70
2021/08/08 09:55:31;;;;;;;12.10;3.17;;;20.70;99.90;;;;;;4953269;29;20030;-70
2021/08/08 09:57:58;;;;;;;8.07;2.72;;;20.50;99.90;;;;;;4956866;28;20353;-70
2021/08/08 10:00:29;;;;;;;6.78;3.10;;;20.40;99.90;;;;;;4957214;29;20028;-70
2021/08/08 10:02:55;;;;;;;7.95;3.03;;;20.50;99.90;;;;;;4957186;29;20079;-70
2021/08/08 10:05:23;;;;;;;7.90;3.53;;;20.80;99.90;;;;;;4961767;28;20031;-70
2021/08/08 10:07:49;;;;;;;7.70;2.55;;;20.90;99.90;;;;;;4956100;29;20033;-69
2021/08/08 10:10:17;;;;;;;7.80;2.70;;;20.90;99.90;;;;;;4954917;29;20031;-70
2021/08/08 10:12:43;;;;;;;10.50;3.20;;;21.00;99.90;;;;;;4955353;29;20075;-70
2021/08/08 10:15:09;;;;;;;10.85;2.90;;;21.20;99.90;;;;;;4955702;29;20038;-70
2021/08/08 10:17:36;;;;;;;9.50;3.00;;;21.40;99.40;;;;;;4945254;29;20027;-70
2021/08/08 10:20:04;;;;;;;9.95;3.20;;;21.60;99.10;;;;;;4966071;28;20031;-71
2021/08/08 10:22:32;;;;;;;10.20;3.05;;;22.00;99.10;;;;;;4960855;28;20027;-70
2021/08/08 10:24:59;;;;;;;8.95;2.88;;;21.90;98.50;;;;;;4937836;29;20071;-70
2021/08/08 10:27:26;;;;;;;6.75;3.25;;;21.80;98.40;;;;;;4951860;29;20081;-70
2021/08/08 10:29:56;;;;;;;10.13;3.33;;;21.70;97.90;;;;;;4957277;29;20019;-70
2021/08/08 10:32:25;;;;;;;7.60;2.78;;;21.70;98.90;;;;;;4956125;29;20035;-70
2021/08/08 10:34:52;;;;;;;8.02;3.00;;;21.70;99.40;;;;;;4957480;29;20527;-70
2021/08/08 10:37:21;;;;;;;7.07;2.67;;;21.70;98.60;;;;;;4956426;29;20035;-71
2021/08/08 10:39:47;;;;;;;10.80;3.88;;;21.70;97.60;;;;;;4957145;29;20023;-70
2021/08/08 10:42:13;;;;;;;7.25;2.58;;;21.60;97.80;;;;;;4956672;29;20484;-70
2021/08/08 10:44:50;;;;;;;9.00;3.10;;;21.50;98.20;;;;;;4956378;29;20035;-71
2021/08/08 10:47:30;;;;;;;8.90;2.95;;;21.40;97.60;;;;;;4956881;29;20038;-71
2021/08/08 10:50:11;;;;;;;7.53;2.90;;;21.30;97.90;;;;;;4957080;29;20432;-70
2021/08/08 10:52:45;;;;;;;13.00;3.10;;;21.30;97.70;;;;;;4955961;29;20038;-70
2021/08/08 10:55:26;;;;;;;6.95;2.75;;;21.20;97.70;;;;;;4956689;29;20034;-70
2021/08/08 10:57:52;;;;;;;7.32;2.85;;;21.20;97.60;;;;;;4956955;29;20028;-70
2021/08/08 11:00:18;;;;;;;7.75;2.58;;;21.30;97.90;;;;;;4956051;29;20030;-70
2021/08/08 11:02:44;;;;;;;9.13;3.55;;;21.30;98.10;;;;;;4956932;29;20412;-70
2021/08/08 11:05:18;;;;;;;5.95;3.10;;;21.40;98.30;;;;;;4956634;29;20020;-71
2021/08/08 11:07:47;;;;;;;8.95;3.03;;;21.50;98.20;;;;;;4956193;28;20114;-73
2021/08/08 11:10:25;;;;;;;9.13;2.65;;;21.60;97.60;;;;;;4939163;29;20477;-70
2021/08/08 11:12:51;;;;;;;14.45;3.72;;;21.70;97.50;;;;;;4956048;29;20031;-70
2021/08/08 11:15:17;;;;;;;10.98;3.10;;;21.70;97.10;;;;;;4956330;29;20041;-70
2021/08/08 11:17:45;;;;;;;7.85;2.85;;;21.70;96.90;;;;;;4956725;29;20472;-70
2021/08/08 11:20:11;;;;;;;9.88;2.70;;;21.80;96.90;;;;;;4955448;28;20031;-71
2021/08/08 11:22:37;;;;;;;9.45;3.50;;;21.90;96.90;;;;;;4957782;28;20035;-71
2021/08/08 11:25:05;;;;;;;7.40;2.67;;;21.90;96.00;;;;;;4956810;29;20016;-78
2021/08/08 11:27:33;;;;;;;6.55;2.63;;;22.10;96.20;;;;;;4931315;29;20110;-73
2021/08/08 11:30:01;;;;;;;9.82;3.28;;;22.30;95.80;;;;;;4954127;29;20026;-73
2021/08/08 11:32:28;;;;;;;7.28;2.63;;;22.50;95.70;;;;;;4955399;29;20488;-72
2021/08/08 11:35:07;;;;;;;8.55;2.95;;;22.50;95.70;;;;;;4950886;29;20365;-72
2021/08/08 11:37:35;;;;;;;8.20;2.58;;;22.30;95.50;;;;;;4939325;29;20114;-71
2021/08/08 11:40:01;;;;;;;8.10;2.35;;;22.30;96.30;;;;;;4955009;29;20019;-76
2021/08/08 11:42:33;;;;;;;8.50;3.22;;;22.40;96.50;;;;;;4936932;29;20134;-70
2021/08/08 11:44:59;;;;;;;9.15;3.50;;;22.40;95.80;;;;;;4955255;29;20032;-69
2021/08/08 11:47:28;;;;;;;8.90;2.72;;;22.40;95.80;;;;;;4936778;29;20034;-70
2021/08/08 11:49:54;;;;;;;5.53;2.63;;;22.50;95.40;;;;;;4936379;29;20060;-69
2021/08/08 11:52:21;;;;;;;9.32;2.60;;;22.60;95.70;;;;;;4935578;29;20040;-71
2021/08/08 11:55:01;;;;;;;8.27;2.67;;;23.00;95.70;;;;;;4933864;29;20524;-70
2021/08/08 11:57:30;;;;;;;9.13;2.85;;;23.40;94.30;;;;;;4917802;29;20027;-69
2021/08/08 11:59:56;;;;;;;10.20;2.75;;;23.60;93.30;;;;;;4935560;29;20031;-78
2021/08/08 12:03:01;;;;;;;9.13;3.10;;;23.70;93.60;;;;;;4914588;29;20031;-85
2021/08/08 12:08:53;;;;;;;8.55;2.60;;;23.70;93.60;;;;;;4895368;29;20092;-81
2021/08/08 12:11:20;;;;;;;4.28;2.00;;;23.60;93.40;;;;;;4885663;29;20032;-72
2021/08/08 12:14:06;;;;;;;5.97;2.40;;;23.40;92.90;;;;;;4894531;29;20042;-71
2021/08/08 12:16:33;;;;;;;5.97;2.60;;;23.30;92.90;;;;;;4892034;29;20041;-72
2021/08/08 12:18:59;;;;;;;7.97;3.05;;;23.30;93.20;;;;;;4892523;29;20061;-80
2021/08/08 12:21:25;;;;;;;8.98;2.75;;;23.20;93.20;;;;;;4890945;29;20033;-71
2021/08/08 12:24:01;;;;;;;10.65;3.10;;;23.20;93.30;;;;;;4900960;29;20103;-73
2021/08/08 12:26:26;;;;;;;7.30;2.38;;;23.30;93.90;;;;;;4877738;29;20140;-72
2021/08/08 12:29:06;;;;;;;10.18;2.58;;;23.20;93.10;;;;;;4909768;29;20618;-73
2021/08/08 12:31:37;;;;;;;11.25;3.03;;;23.10;93.20;;;;;;4908885;29;20040;-71
2021/08/08 12:34:03;;;;;;;7.93;2.22;;;23.10;93.60;;;;;;4882384;29;20047;-71
2021/08/08 12:36:37;;;;;;;8.45;2.67;;;22.90;93.20;;;;;;4901650;29;20619;-73
2021/08/08 12:39:03;;;;;;;7.70;2.72;;;22.90;93.70;;;;;;4899207;29;20058;-71
2021/08/08 12:41:31;;;;;;;5.80;2.58;;;22.90;94.10;;;;;;4934809;29;20110;-70
2021/08/08 12:44:01;;;;;;;6.82;2.47;;;22.70;94.80;;;;;;4953289;29;20047;-71